createdAt,value
2023-11-15T11:43:17.392Z,12.20
2023-11-15T11:43:27.766Z,15.70
2023-11-15T11:43:38.993Z,16.70
2023-11-15T11:43:52.377Z,18.20
2023-11-15T11:44:00.995Z,17.00
2023-11-15T11:44:10.343Z,15.90
2023-11-15T11:44:21.219Z,14.50
2023-11-15T11:44:33.035Z,15.30
2023-11-15T11:44:42.905Z,17.50
2023-11-15T11:44:53.869Z,16.50
2023-11-15T11:45:04.764Z,14.30
2023-11-15T11:45:15.248Z,11.60
2023-11-15T11:45:26.977Z,13.80
2023-11-15T11:45:37.127Z,18.40
2023-11-15T11:45:47.648Z,19.70
2023-11-15T11:45:58.520Z,19.80
2023-11-15T11:46:09.438Z,18.40
2023-11-15T11:46:20.279Z,19.00
2023-11-15T11:46:31.286Z,19.90
2023-11-15T11:46:41.942Z,19.50
2023-11-15T11:46:52.375Z,14.50
2023-11-15T11:47:03.208Z,15.70
2023-11-15T11:47:14.059Z,16.80
2023-11-15T11:47:24.877Z,16.30
2023-11-15T11:47:35.430Z,18.40
2023-11-15T11:47:46.098Z,18.50
2023-11-15T11:47:57.064Z,18.60
2023-11-15T11:48:08.043Z,16.60
2023-11-15T11:48:18.564Z,16.00
2023-11-15T11:48:29.175Z,13.80
2023-11-15T11:48:40.065Z,15.50
2023-11-15T11:48:52.798Z,14.00
2023-11-15T11:49:01.648Z,16.00
2023-11-15T11:49:12.576Z,13.50
2023-11-15T11:49:23.458Z,14.20
2023-11-15T11:49:34.385Z,14.80
2023-11-15T11:49:45.359Z,15.20
2023-11-15T11:49:56.394Z,16.20
2023-11-15T11:50:06.901Z,15.30
2023-11-15T11:50:17.778Z,14.60
2023-11-15T11:50:28.733Z,12.70
2023-11-15T11:50:39.695Z,13.30
2023-11-15T11:50:50.607Z,14.50
2023-11-15T11:51:01.212Z,13.70
2023-11-15T11:51:12.349Z,13.70
2023-11-15T11:51:22.251Z,13.80
2023-11-15T11:51:33.167Z,13.70
2023-11-15T11:51:44.112Z,13.40
2023-11-15T11:51:55.576Z,14.30
2023-11-15T11:52:05.547Z,17.70
2023-11-15T11:52:16.422Z,18.40
2023-11-15T11:52:27.321Z,18.80
2023-11-15T11:52:38.280Z,16.10
2023-11-15T11:52:49.073Z,12.30
2023-11-15T11:53:00.095Z,13.20
2023-11-15T11:53:10.467Z,13.30
2023-11-15T11:53:21.401Z,12.70
2023-11-15T11:53:32.277Z,14.20
2023-11-15T11:53:43.200Z,15.90
2023-11-15T11:53:54.067Z,16.10
2023-11-15T11:54:05.123Z,14.20
2023-11-15T11:54:16.456Z,14.60
2023-11-15T11:54:27.445Z,16.20
2023-11-15T11:54:37.339Z,16.80
2023-11-15T11:54:48.358Z,15.30
2023-11-15T11:54:59.244Z,14.70
2023-11-15T11:55:11.956Z,15.10
2023-11-15T11:55:21.123Z,14.10
2023-11-15T11:55:31.792Z,13.50
2023-11-15T11:55:42.244Z,12.10
2023-11-15T11:55:53.674Z,12.30
2023-11-15T11:56:03.737Z,12.30
2023-11-15T11:56:14.756Z,11.60
2023-11-15T11:56:25.192Z,9.90
2023-11-15T11:56:36.013Z,10.40
2023-11-15T11:56:46.992Z,9.90
2023-11-15T11:56:57.984Z,11.20
2023-11-15T11:57:08.934Z,12.30
2023-11-15T11:57:19.628Z,13.30
2023-11-15T11:57:30.520Z,15.30
2023-11-15T11:57:41.491Z,15.10
2023-11-15T11:57:52.471Z,14.80
2023-11-15T11:58:03.388Z,14.80
2023-11-15T11:58:14.036Z,14.40
2023-11-15T11:58:25.077Z,13.00
2023-11-15T11:58:36.003Z,14.40
2023-11-15T11:58:46.637Z,14.20
2023-11-15T11:58:57.752Z,15.00
2023-11-15T11:59:08.337Z,13.90
2023-11-15T11:59:18.755Z,15.10
2023-11-15T11:59:29.774Z,16.10
2023-11-15T11:59:40.192Z,15.60
2023-11-15T11:59:51.014Z,14.50
2023-11-15T12:00:02.261Z,13.40
2023-11-15T12:00:15.048Z,14.90
2023-11-15T12:00:24.828Z,16.90
2023-11-15T12:00:34.801Z,15.70
2023-11-15T12:00:45.705Z,15.20
2023-11-15T12:00:56.557Z,16.90
2023-11-15T12:01:07.513Z,17.90
2023-11-15T12:01:18.404Z,18.60
2023-11-15T12:01:28.947Z,13.80
2023-11-15T12:01:39.804Z,13.40
2023-11-15T12:01:51.901Z,13.30
2023-11-15T12:02:01.418Z,13.00
2023-11-15T12:02:11.822Z,13.20
2023-11-15T12:02:24.626Z,14.40
2023-11-15T12:02:33.624Z,16.00
2023-11-15T12:02:44.170Z,15.50
2023-11-15T12:03:01.107Z,14.50
2023-11-15T12:03:09.599Z,14.70
2023-11-15T12:03:18.805Z,16.60
2023-11-15T12:03:29.341Z,17.30
2023-11-15T12:03:38.402Z,16.10
2023-11-15T12:03:49.690Z,16.10
2023-11-15T12:03:59.961Z,14.70
2023-11-15T12:04:10.497Z,16.70
2023-11-15T12:04:43.902Z,14.00
2023-11-15T12:04:50.820Z,17.00
2023-11-15T12:05:00.579Z,14.20
2023-11-15T12:05:11.280Z,15.90
2023-11-15T12:05:22.547Z,18.00
2023-11-15T12:05:32.618Z,24.00
2023-11-15T12:05:43.809Z,21.00
2023-11-15T12:05:54.068Z,18.40
2023-11-15T12:06:04.992Z,16.70
2023-11-15T12:06:16.017Z,16.10
2023-11-15T12:06:26.512Z,19.00
2023-11-15T12:06:37.816Z,18.30
2023-11-15T12:06:48.159Z,16.00
2023-11-15T12:06:58.682Z,15.10
2023-11-15T12:07:09.642Z,14.80
2023-11-15T12:07:20.638Z,15.10
2023-11-15T12:07:31.600Z,13.80
2023-11-15T12:07:42.541Z,14.10
2023-11-15T12:07:53.571Z,15.40
2023-11-15T12:08:04.552Z,13.30
2023-11-15T12:08:15.068Z,14.20
2023-11-15T12:08:27.895Z,16.60
2023-11-15T12:08:37.044Z,16.40
2023-11-15T12:08:47.660Z,14.60
2023-11-15T12:08:58.117Z,10.80
2023-11-15T12:09:20.542Z,12.90
2023-11-15T13:01:05.310Z,12.10
2023-11-15T13:32:31.775Z,13.50
2023-11-15T13:32:37.772Z,12.50
2023-11-15T13:32:45.859Z,12.00
2023-11-15T13:36:14.821Z,15.60
2023-11-15T13:36:27.352Z,15.60
2023-11-15T13:37:42.169Z,9.20
2023-11-15T13:37:58.903Z,11.50
2023-11-15T13:38:11.090Z,11.80
2023-11-15T13:40:27.975Z,11.20
2023-11-15T13:40:40.899Z,11.50
2023-11-15T13:40:48.804Z,12.00
2023-11-15T13:41:07.209Z,11.40
2023-11-15T13:41:10.231Z,11.20
2023-11-15T13:41:22.207Z,10.20
2023-11-15T13:41:34.422Z,12.10
2023-11-15T13:41:43.252Z,10.50
2023-11-15T13:41:53.992Z,11.00
2023-11-15T13:42:15.355Z,12.80
2023-11-15T13:42:35.181Z,14.00
2023-11-15T14:40:36.034Z,11.10
2023-11-15T14:40:41.567Z,12.60
2023-11-15T14:47:48.421Z,13.90
2023-11-15T14:47:57.470Z,13.90
2023-11-15T14:48:06.934Z,11.90
2023-11-15T14:48:17.871Z,11.10
2023-11-15T14:48:30.213Z,11.70
2023-11-15T14:48:47.461Z,13.00
2023-11-15T14:48:53.406Z,13.40
2023-11-15T14:49:04.545Z,12.20
2023-11-15T14:49:12.974Z,13.80
2023-11-15T14:50:44.252Z,13.50
2023-11-15T14:50:52.588Z,12.40
2023-11-15T14:51:05.315Z,11.40
2023-11-15T14:51:14.593Z,10.40
2023-11-15T14:51:27.010Z,12.30
2023-11-15T14:51:35.953Z,13.60
2023-11-15T14:51:45.666Z,14.40
2023-11-15T14:51:56.550Z,13.80
2023-11-15T14:52:33.423Z,13.20
2023-11-15T14:54:16.287Z,12.50
2023-11-15T14:54:39.168Z,13.70
2023-11-15T14:54:41.190Z,12.90
2023-11-15T14:54:53.294Z,9.40
2023-11-15T14:55:03.654Z,9.80
2023-11-15T14:55:14.937Z,9.00
2023-11-15T14:55:23.912Z,9.50
2023-11-15T14:55:45.455Z,12.30
2023-11-15T14:55:56.255Z,14.00
2023-11-15T14:56:08.497Z,13.40
2023-11-15T14:56:19.246Z,13.30
2023-11-15T14:56:28.220Z,13.40
2023-11-15T14:56:38.998Z,11.60
2023-11-15T14:56:49.690Z,9.30
2023-11-15T14:57:03.196Z,7.80
2023-11-15T14:57:12.195Z,9.40
2023-11-15T14:57:24.158Z,12.50
2023-11-15T14:57:34.265Z,13.70
2023-11-15T14:57:43.338Z,13.60
2023-11-15T14:57:54.076Z,13.70
2023-11-15T14:58:04.761Z,12.90
2023-11-15T14:58:15.931Z,12.90
2023-11-15T14:58:29.642Z,13.50
2023-11-15T14:58:36.654Z,12.00
2023-11-15T14:58:49.676Z,11.30
2023-11-15T14:58:59.425Z,12.60
2023-11-15T14:59:07.955Z,12.80
2023-11-15T14:59:18.673Z,13.30
2023-11-15T14:59:29.741Z,10.30
2023-11-15T14:59:40.261Z,13.30
2023-11-15T14:59:52.472Z,14.00
2023-11-15T15:00:03.325Z,16.00
2023-11-15T15:00:12.733Z,11.10
2023-11-15T15:00:26.005Z,11.50
2023-11-15T15:00:37.119Z,12.20
2023-11-15T15:00:52.673Z,12.40
2023-11-15T15:01:00.679Z,12.40
2023-11-15T15:01:08.886Z,11.10
2023-11-15T15:01:18.897Z,11.80
2023-11-15T15:01:32.486Z,11.70
2023-11-15T15:01:39.951Z,11.90
2023-11-15T15:02:01.282Z,11.20
2023-11-15T15:02:12.400Z,11.50
2023-11-15T15:02:23.542Z,10.30
2023-11-15T15:02:34.824Z,10.50
2023-11-15T15:02:47.071Z,9.20
2023-11-15T15:02:55.132Z,9.80
2023-11-15T15:03:05.839Z,11.10
2023-11-15T15:03:16.843Z,12.40
2023-11-15T15:03:28.828Z,12.20
2023-11-15T15:03:38.009Z,10.70
2023-11-15T15:03:50.245Z,11.40
2023-11-15T15:03:59.825Z,10.40
2023-11-15T15:04:10.243Z,10.20
2023-11-15T15:04:21.084Z,11.40
2023-11-15T15:04:32.324Z,13.40
2023-11-15T15:04:45.515Z,15.00
2023-11-15T15:04:53.222Z,12.60
2023-11-15T15:05:04.218Z,13.80
2023-11-15T15:05:14.348Z,14.00
2023-11-15T15:05:25.299Z,15.10
2023-11-15T15:05:37.856Z,12.40
2023-11-15T15:05:47.155Z,8.60
2023-11-15T15:06:00.482Z,8.60
2023-11-15T15:06:08.187Z,9.50
2023-11-15T15:06:19.465Z,11.80
2023-11-15T15:06:30.664Z,12.70
2023-11-15T15:06:44.522Z,14.00
2023-11-15T15:06:51.514Z,12.50
2023-11-15T15:07:17.030Z,12.00
2023-11-15T15:07:35.534Z,9.90
2023-11-15T15:07:39.611Z,13.20
2023-11-15T15:07:47.969Z,14.30
2023-11-15T15:07:58.504Z,11.60
2023-11-15T15:08:12.211Z,10.40
2023-11-15T15:08:19.828Z,10.20
2023-11-15T15:08:48.637Z,9.90
2023-11-15T15:08:52.699Z,11.20
2023-11-15T15:09:02.901Z,11.40
2023-11-15T15:09:14.269Z,11.40
2023-11-15T15:11:36.587Z,11.70
2023-11-15T15:11:47.344Z,11.00
2023-11-15T15:12:01.885Z,11.40
2023-11-15T15:12:12.143Z,13.40
2023-11-15T15:12:22.577Z,14.70
2023-11-15T15:12:35.294Z,13.00
2023-11-15T15:12:43.791Z,10.60
2023-11-15T15:12:54.224Z,8.90
2023-11-15T15:13:20.515Z,8.90
2023-11-15T15:15:18.920Z,10.00
2023-11-15T15:15:30.388Z,9.80
2023-11-15T15:15:40.390Z,9.00
2023-11-15T15:15:51.902Z,11.90
2023-11-15T15:16:06.383Z,13.90
2023-11-15T15:16:13.965Z,13.40
2023-11-15T15:16:24.572Z,14.20
2023-11-15T15:16:41.973Z,13.20
2023-11-15T15:16:46.225Z,15.10
2023-11-15T15:16:56.716Z,13.30
2023-11-15T15:17:11.863Z,13.50
2023-11-15T15:17:23.876Z,14.10
2023-11-15T15:17:30.465Z,13.80
2023-11-15T15:17:50.955Z,11.00
2023-11-15T15:18:02.495Z,10.50
2023-11-15T15:18:16.731Z,11.50
2023-11-15T15:18:29.844Z,12.80
2023-11-15T15:18:35.143Z,13.70
2023-11-15T15:18:45.518Z,12.60
2023-11-15T15:18:54.902Z,11.20
2023-11-15T15:19:07.570Z,9.80
2023-11-15T15:19:16.296Z,10.30
2023-11-15T15:19:28.194Z,12.70
2023-11-15T15:19:37.762Z,12.80
2023-11-15T15:19:48.676Z,11.70
2023-11-15T15:19:59.868Z,9.60
2023-11-15T15:20:10.203Z,10.00
2023-11-15T15:20:22.157Z,11.50
2023-11-15T15:20:33.435Z,12.30
2023-11-15T15:20:43.785Z,13.00
2023-11-15T15:20:54.840Z,13.50
2023-11-15T15:21:05.352Z,12.70
2023-11-15T15:21:16.818Z,11.00
2023-11-15T15:21:32.681Z,11.60
2023-11-15T15:21:43.373Z,14.60
2023-11-15T15:22:10.730Z,15.00
2023-11-15T15:22:24.443Z,11.40
2023-11-15T15:22:34.673Z,10.40
2023-11-15T15:22:46.319Z,13.30
2023-11-15T15:22:56.342Z,11.70
2023-11-15T15:23:06.726Z,11.30
2023-11-15T15:23:17.158Z,8.00
2023-11-15T15:23:28.225Z,10.10
2023-11-15T15:23:39.189Z,10.80
2023-11-15T15:23:49.689Z,10.80
2023-11-15T15:24:00.301Z,9.50
2023-11-15T15:24:10.894Z,13.30
2023-11-15T15:24:21.912Z,12.30
2023-11-15T15:24:33.138Z,13.20
2023-11-15T15:24:43.489Z,10.00
2023-11-15T15:24:54.001Z,10.30
2023-11-15T15:25:04.891Z,11.30
2023-11-15T15:25:15.268Z,12.70
2023-11-15T15:25:31.430Z,13.00
2023-11-15T15:25:36.219Z,12.50
2023-11-15T15:25:47.529Z,13.90
2023-11-15T15:31:40.214Z,12.40
2023-11-15T15:31:43.565Z,11.30
2023-11-15T15:32:14.017Z,11.50
2023-11-15T15:32:16.494Z,14.90
2023-11-15T15:32:27.063Z,17.10
2023-11-15T15:32:37.287Z,14.80
2023-11-15T15:32:48.019Z,11.60
2023-11-15T15:32:59.128Z,10.80
2023-11-15T15:33:21.273Z,10.60
2023-11-15T15:33:39.911Z,13.50
2023-11-15T15:33:45.511Z,14.10
2023-11-15T15:33:53.906Z,13.40
2023-11-15T15:34:04.195Z,14.50
2023-11-15T15:34:14.296Z,11.90
2023-11-15T15:34:27.982Z,11.10
2023-11-15T15:36:22.288Z,10.70
2023-11-15T15:36:24.323Z,11.70
2023-11-15T15:36:34.395Z,13.00
2023-11-15T15:36:46.123Z,15.10
2023-11-15T15:37:17.031Z,13.60
2023-11-15T15:37:19.204Z,12.20
2023-11-15T15:37:30.841Z,11.40
2023-11-15T15:37:45.028Z,10.20
2023-11-15T15:38:05.516Z,10.60
2023-11-15T15:38:07.328Z,14.40
2023-11-15T15:38:17.371Z,15.10
2023-11-15T15:38:52.948Z,13.10
2023-11-15T15:38:57.921Z,12.40
2023-11-15T15:39:08.367Z,13.10
2023-11-15T15:39:42.048Z,18.00
2023-11-15T15:39:44.037Z,12.50
2023-11-15T15:39:54.593Z,13.70
2023-11-15T15:40:06.777Z,13.30
2023-11-15T15:40:16.042Z,12.90
2023-11-15T15:40:26.841Z,11.70
2023-11-15T15:40:48.123Z,11.60
2023-11-15T15:40:58.294Z,12.70
2023-11-15T15:41:08.829Z,11.00
2023-11-15T15:41:19.971Z,12.60
2023-11-15T15:41:30.610Z,11.40
2023-11-15T15:41:41.127Z,12.40
2023-11-15T15:41:54.426Z,10.20
2023-11-15T15:42:04.087Z,11.40
2023-11-15T15:42:15.915Z,12.20
2023-11-15T15:42:28.295Z,12.40
2023-11-15T15:42:37.118Z,10.70
2023-11-15T15:42:49.682Z,12.00
2023-11-15T15:42:56.282Z,15.40
2023-11-15T15:43:07.181Z,15.40
2023-11-15T15:48:54.717Z,11.30
2023-11-15T15:48:58.081Z,13.00
2023-11-15T15:49:09.318Z,12.80
2023-11-15T15:49:20.794Z,13.20
2023-11-15T15:49:37.563Z,15.00
2023-11-15T15:49:44.504Z,15.30
2023-11-15T15:50:03.350Z,12.50
2023-11-15T15:50:14.413Z,13.60
2023-11-15T15:50:23.982Z,13.80
2023-11-15T15:50:34.804Z,13.30
2023-11-15T15:50:45.589Z,12.80
2023-11-15T15:50:56.123Z,13.40
2023-11-15T15:51:06.704Z,14.10
2023-11-15T15:51:18.154Z,15.10
2023-11-15T15:51:28.268Z,13.00
2023-11-15T15:51:38.794Z,11.50
2023-11-15T15:51:49.275Z,13.40
2023-11-15T15:52:00.801Z,13.30
2023-11-15T15:52:11.078Z,11.90
2023-11-15T15:52:21.696Z,11.60
2023-11-15T15:52:32.384Z,13.00
2023-11-15T15:52:42.890Z,14.90
2023-11-15T15:52:53.327Z,12.60
2023-11-15T15:53:05.694Z,10.60
2023-11-15T15:53:16.539Z,10.50
2023-11-15T15:53:26.176Z,12.50
2023-11-15T15:53:36.875Z,12.90
2023-11-15T15:53:49.257Z,14.90
2023-11-15T15:53:58.420Z,14.60
2023-11-15T15:54:10.530Z,13.70
2023-11-15T15:54:19.946Z,14.30
2023-11-15T15:54:32.709Z,12.00
2023-11-15T15:54:41.744Z,13.60
2023-11-15T15:54:52.748Z,14.90
2023-11-15T15:55:03.551Z,15.00
2023-11-15T15:55:14.593Z,13.00
2023-11-15T15:55:24.684Z,11.40
2023-11-15T15:55:37.282Z,13.40
2023-11-15T15:55:46.231Z,13.30
2023-11-15T15:55:57.645Z,13.40
2023-11-15T15:56:08.246Z,12.70
2023-11-15T15:56:18.364Z,13.30
2023-11-15T15:56:30.352Z,14.80
2023-11-15T15:56:41.062Z,13.10
2023-11-15T15:56:51.312Z,13.60
2023-11-15T15:57:02.463Z,12.10
2023-11-15T15:57:12.316Z,11.70
2023-11-15T15:57:23.461Z,12.80
2023-11-15T15:57:33.858Z,11.50
2023-11-15T15:57:44.474Z,13.70
2023-11-15T15:57:54.948Z,10.00
2023-11-15T15:58:05.717Z,9.90
2023-11-15T15:58:16.374Z,10.20
2023-11-15T15:58:26.893Z,11.00
2023-11-15T15:58:37.317Z,11.60
2023-11-15T15:58:48.455Z,11.10
2023-11-15T15:58:59.345Z,11.80
2023-11-15T15:59:09.812Z,11.40
2023-11-15T15:59:21.253Z,11.50
2023-11-15T15:59:32.063Z,11.80
2023-11-15T15:59:42.576Z,14.50
2023-11-15T15:59:53.636Z,16.30
2023-11-15T16:00:05.003Z,15.00
2023-11-15T16:00:15.415Z,14.40
2023-11-15T16:00:26.080Z,13.00
2023-11-15T16:00:36.862Z,12.90
2023-11-15T16:00:47.530Z,12.30
2023-11-15T16:00:58.476Z,12.30
2023-11-15T16:01:08.937Z,11.80
2023-11-15T16:01:20.094Z,13.90
2023-11-15T16:01:31.125Z,13.60
2023-11-15T16:01:42.570Z,12.60
2023-11-15T16:01:54.961Z,13.30
2023-11-15T16:02:04.760Z,13.70
2023-11-15T16:02:15.543Z,14.90
2023-11-15T16:02:24.999Z,12.90
2023-11-15T16:02:36.063Z,12.40
2023-11-15T16:02:46.769Z,13.20
2023-11-15T16:02:57.403Z,16.50
2023-11-15T16:03:07.998Z,15.90
2023-11-15T16:03:19.098Z,12.70
2023-11-15T16:03:34.744Z,11.20
2023-11-15T16:03:40.623Z,11.40
2023-11-15T16:03:50.825Z,13.00
2023-11-15T16:04:01.625Z,13.50
2023-11-15T16:04:12.454Z,13.30
2023-11-15T16:04:23.432Z,12.00
2023-11-15T16:04:41.093Z,11.40
2023-11-15T16:04:47.558Z,12.80
2023-11-15T16:04:55.456Z,14.60
2023-11-15T16:05:06.557Z,15.10
2023-11-15T16:05:17.026Z,15.90
2023-11-15T16:05:27.486Z,13.60
2023-11-15T16:05:50.481Z,13.10
2023-11-15T16:06:00.001Z,13.80
2023-11-15T16:06:10.569Z,13.40
2023-11-15T16:06:21.115Z,13.30
2023-11-15T16:06:31.628Z,12.90
2023-11-15T16:06:42.200Z,14.30
2023-11-15T16:06:53.068Z,15.30
2023-11-15T16:07:04.521Z,14.40
2023-11-15T16:07:14.757Z,14.20
2023-11-15T16:07:26.385Z,12.70
2023-11-15T16:07:36.388Z,14.30
2023-11-15T16:07:47.342Z,14.90
2023-11-15T16:07:58.351Z,14.80
2023-11-15T16:08:09.172Z,13.60
2023-11-15T16:08:19.929Z,13.60
2023-11-15T16:08:33.206Z,13.30
2023-11-15T16:08:44.885Z,14.80
2023-11-15T16:08:55.085Z,13.80
2023-11-15T16:09:03.850Z,15.30
2023-11-15T16:09:13.822Z,16.20
2023-11-15T16:09:24.525Z,14.20
2023-11-15T16:09:36.711Z,14.00
2023-11-15T16:09:45.669Z,11.90
2023-11-15T16:09:56.301Z,12.80
2023-11-15T16:10:08.490Z,12.80
2023-11-15T16:10:17.642Z,12.00
2023-11-15T16:10:28.468Z,12.00
2023-11-15T16:10:38.998Z,10.90
2023-11-15T16:10:51.615Z,13.20
2023-11-15T16:11:02.275Z,14.30
2023-11-15T16:11:13.742Z,15.60
2023-11-15T16:11:23.540Z,16.70
2023-11-15T16:11:33.507Z,14.50
2023-11-15T16:11:44.785Z,11.90
2023-11-15T16:12:02.509Z,10.70
2023-11-15T16:13:10.636Z,10.80
2023-11-15T16:13:14.794Z,11.30
2023-11-15T16:13:23.795Z,12.40
2023-11-15T16:13:35.017Z,13.20
2023-11-15T16:13:43.621Z,13.10
2023-11-15T16:13:54.129Z,12.70
2023-11-15T16:14:15.581Z,14.50
2023-11-15T16:14:26.744Z,12.40
2023-11-15T16:14:37.140Z,10.90
2023-11-15T16:14:48.197Z,13.30
2023-11-15T16:14:59.252Z,13.60
2023-11-15T16:15:10.131Z,14.00
2023-11-15T16:15:20.678Z,12.00
2023-11-15T16:15:30.342Z,12.00
2023-11-15T16:15:41.823Z,12.70
2023-11-15T16:15:54.128Z,13.00
2023-11-15T16:16:03.667Z,14.40
2023-11-15T16:16:14.203Z,15.50
2023-11-15T16:16:25.257Z,14.00
2023-11-15T16:16:35.604Z,12.90
2023-11-15T16:16:46.493Z,12.00
2023-11-15T16:16:57.197Z,12.40
2023-11-15T16:17:08.737Z,13.30
2023-11-15T16:18:05.348Z,9.80
2023-11-15T16:20:48.255Z,15.30
2023-11-15T16:20:57.976Z,14.50
2023-11-15T16:21:08.698Z,12.10
2023-11-15T16:21:20.972Z,12.50
2023-11-15T16:21:30.711Z,11.50
2023-11-15T16:21:45.862Z,13.00
2023-11-15T16:25:37.462Z,13.90
2023-11-15T16:25:47.040Z,13.70
2023-11-15T16:25:58.496Z,14.70
2023-11-15T16:26:07.793Z,14.60
2023-11-15T16:38:44.753Z,14.60
2023-11-15T16:38:49.980Z,13.80
2023-11-15T16:39:01.227Z,13.80
2023-11-15T16:39:10.825Z,13.80
2023-11-15T16:39:21.866Z,13.80
2023-11-15T16:39:31.380Z,12.00
2023-11-15T16:39:41.990Z,11.60
2023-11-15T16:39:55.929Z,11.50
2023-11-15T16:40:04.257Z,12.40
2023-11-15T16:40:14.708Z,12.70
2023-11-15T16:40:28.859Z,12.80
2023-11-15T16:40:39.145Z,12.30
2023-11-15T16:40:47.087Z,15.00
2023-11-15T16:40:58.363Z,14.10
2023-11-15T16:41:08.110Z,14.90
2023-11-15T16:41:19.125Z,13.00
2023-11-15T16:41:29.855Z,11.60
2023-11-15T16:41:40.490Z,11.50
2023-11-15T16:41:51.641Z,11.20
2023-11-15T16:42:02.355Z,11.40
2023-11-15T16:42:13.620Z,12.80
2023-11-15T16:42:24.053Z,12.60
2023-11-15T16:42:34.519Z,15.00
2023-11-15T16:42:45.386Z,12.90
2023-11-15T16:42:56.580Z,13.50
2023-11-15T16:43:08.147Z,13.30
2023-11-15T16:43:17.475Z,14.20
2023-11-15T16:43:31.791Z,14.30
2023-11-15T16:43:40.756Z,14.10
2023-11-15T16:43:57.472Z,13.20
2023-11-15T16:44:07.209Z,11.70
2023-11-15T16:44:14.986Z,14.50
2023-11-15T16:44:24.835Z,13.40
2023-11-15T16:44:35.665Z,14.30
2023-11-15T16:44:47.980Z,15.00
2023-11-15T16:45:00.250Z,17.10
2023-11-15T16:45:17.221Z,17.70
2023-11-15T16:45:31.289Z,14.50
2023-11-15T16:45:46.537Z,13.10
2023-11-15T16:46:00.051Z,14.40
2023-11-15T16:46:10.946Z,13.80
2023-11-15T16:46:31.651Z,16.10
2023-11-15T16:46:42.984Z,22.40
2023-11-15T16:46:53.057Z,26.80
2023-11-15T16:49:51.568Z,15.30
2023-11-15T16:49:53.456Z,13.30
2023-11-15T17:37:03.818Z,14.20
2023-11-15T17:37:12.118Z,18.80
2023-11-15T17:37:23.182Z,20.50
2023-11-15T17:37:35.235Z,17.90
2023-11-15T17:37:45.813Z,15.00
2023-11-15T17:37:55.722Z,14.40
2023-11-15T17:38:05.863Z,11.10
2023-11-15T17:38:16.028Z,13.10
2023-11-15T17:38:26.533Z,12.70
2023-11-15T17:38:39.136Z,14.80
2023-11-15T17:38:47.737Z,13.50
2023-11-15T17:38:58.434Z,14.40
2023-11-15T17:39:10.228Z,13.90
2023-11-15T17:39:20.456Z,14.70
2023-11-15T17:39:31.295Z,13.30
2023-11-15T17:39:42.931Z,14.90
2023-11-15T17:39:52.613Z,14.40
2023-11-15T17:40:03.393Z,14.80
2023-11-15T17:40:14.171Z,13.20
2023-11-15T17:40:24.943Z,10.90
2023-11-15T17:40:36.353Z,10.10
2023-11-15T17:40:46.943Z,11.40
2023-11-15T17:40:59.139Z,14.10
2023-11-15T17:41:07.996Z,14.10
2023-11-15T17:41:19.886Z,12.30
2023-11-15T17:41:29.638Z,15.20
2023-11-15T17:41:40.434Z,15.00
2023-11-15T17:41:52.981Z,13.20
2023-11-15T17:42:01.923Z,11.80
2023-11-15T17:42:12.097Z,11.80
2023-11-15T17:42:23.564Z,13.00
2023-11-15T17:42:34.430Z,12.20
2023-11-15T17:42:49.613Z,11.30
2023-11-15T17:42:57.079Z,11.20
2023-11-15T17:43:06.480Z,12.30
2023-11-15T17:43:17.164Z,12.20
2023-11-15T17:43:27.953Z,11.00
2023-11-15T17:43:38.803Z,10.60
2023-11-15T17:43:49.872Z,11.60
2023-11-15T17:44:00.378Z,13.80
2023-11-15T17:44:13.635Z,16.10
2023-11-15T17:44:22.165Z,15.00
2023-11-15T17:44:33.152Z,11.60
2023-11-15T17:44:43.935Z,11.30
2023-11-15T17:44:54.647Z,12.30
2023-11-15T17:45:05.303Z,13.40
2023-11-15T17:45:16.450Z,12.30
2023-11-15T17:45:26.716Z,13.10
2023-11-15T17:45:37.360Z,13.40
2023-11-15T17:45:48.078Z,14.40
2023-11-15T17:45:59.161Z,14.90
2023-11-15T17:46:09.295Z,15.80
2023-11-15T17:46:20.336Z,16.50
2023-11-15T17:46:32.285Z,13.70
2023-11-15T17:46:41.667Z,13.90
2023-11-15T17:46:52.582Z,13.50
2023-11-15T17:47:03.291Z,14.90
2023-11-15T17:47:15.194Z,15.70
2023-11-15T17:47:25.088Z,14.00
2023-11-15T17:47:36.847Z,14.00
2023-11-15T17:47:46.438Z,14.30
2023-11-15T17:47:58.102Z,15.60
2023-11-15T17:48:07.826Z,15.70
2023-11-15T17:48:18.568Z,16.60
2023-11-15T17:48:29.675Z,15.60
2023-11-15T17:48:39.867Z,13.60
2023-11-15T17:48:50.853Z,13.30
2023-11-15T17:49:05.722Z,13.90
2023-11-15T17:49:12.895Z,12.70
2023-11-15T17:49:24.217Z,13.00
2023-11-15T17:49:33.744Z,11.30
2023-11-15T17:49:45.327Z,13.30
2023-11-15T17:49:55.279Z,13.30
2023-11-15T17:50:06.786Z,13.80
2023-11-15T17:50:18.824Z,13.00
2023-11-15T17:50:28.136Z,13.00
2023-11-15T17:50:38.270Z,15.00
2023-11-15T17:50:49.514Z,15.40
2023-11-15T17:51:01.721Z,18.40
2023-11-15T17:51:11.094Z,18.80
2023-11-15T17:51:21.132Z,18.60
2023-11-15T17:51:33.431Z,16.60
2023-11-15T17:51:43.676Z,19.70
2023-11-15T17:51:54.094Z,22.00
2023-11-15T17:52:05.296Z,23.20
2023-11-15T17:52:15.308Z,21.20
2023-11-15T17:52:26.099Z,19.10
2023-11-15T17:52:36.807Z,19.00
2023-11-15T17:52:49.857Z,18.90
2023-11-15T17:52:58.601Z,19.10
2023-11-15T17:53:09.195Z,18.50
2023-11-15T17:53:20.173Z,18.30
2023-11-15T17:53:30.480Z,17.10
2023-11-15T17:53:41.522Z,18.40
2023-11-15T17:53:51.839Z,15.20
2023-11-15T17:54:02.561Z,15.60
2023-11-15T17:54:13.733Z,14.70
2023-11-15T17:54:27.119Z,15.50
2023-11-15T17:54:36.432Z,13.70
2023-11-15T17:54:45.400Z,12.60
2023-11-15T17:54:56.137Z,14.00
2023-11-15T17:55:06.832Z,14.30
2023-11-15T17:55:18.235Z,12.80
2023-11-15T17:55:28.755Z,12.10
2023-11-15T17:55:40.002Z,13.60
2023-11-15T17:55:50.274Z,14.30
2023-11-15T17:56:00.680Z,15.30
2023-11-15T17:56:13.661Z,14.20
2023-11-15T17:56:24.219Z,15.00
2023-11-15T17:56:32.808Z,15.60
2023-11-15T17:56:43.488Z,14.90
2023-11-15T17:56:54.647Z,14.80
2023-11-15T17:57:06.004Z,14.80
2023-11-15T17:57:16.555Z,15.30
2023-11-15T17:57:27.562Z,12.20
2023-11-15T17:57:38.371Z,12.90
2023-11-15T17:57:49.116Z,11.30
2023-11-15T17:57:59.754Z,12.80
2023-11-15T17:58:11.339Z,11.20
2023-11-15T17:58:21.403Z,15.20
2023-11-15T17:58:32.084Z,15.10
2023-11-15T17:58:42.804Z,15.50
2023-11-15T17:58:53.354Z,15.40
2023-11-15T17:59:04.328Z,16.00
2023-11-15T17:59:15.419Z,15.50
2023-11-15T17:59:25.778Z,13.00
2023-11-15T17:59:36.391Z,9.90
2023-11-15T17:59:47.492Z,12.20
2023-11-15T17:59:57.858Z,12.50
2023-11-15T18:00:08.477Z,12.30
2023-11-15T18:00:19.739Z,11.50
2023-11-15T18:00:30.016Z,11.10
2023-11-15T18:00:40.791Z,13.30
2023-11-15T18:02:55.386Z,12.40
2023-11-15T18:02:57.597Z,13.60
2023-11-15T18:03:08.050Z,14.00
2023-11-15T18:03:19.935Z,11.50
2023-11-15T18:03:28.966Z,13.60
2023-11-15T18:03:39.275Z,13.80
2023-11-15T18:04:01.050Z,17.30
2023-11-15T18:04:11.732Z,15.80
2023-11-15T18:04:23.151Z,15.20
2023-11-15T18:04:32.938Z,18.00
2023-11-15T18:04:43.503Z,17.60
2023-11-15T18:04:53.800Z,17.00
2023-11-15T18:05:05.411Z,14.10
2023-11-15T18:05:15.490Z,14.40
2023-11-15T18:05:26.351Z,14.20
2023-11-15T18:05:37.302Z,13.90
2023-11-15T18:05:48.075Z,14.40
2023-11-15T18:05:58.932Z,15.40
2023-11-15T18:06:10.801Z,16.10
2023-11-15T18:06:21.567Z,17.10
2023-11-15T18:06:31.291Z,15.60
2023-11-15T18:06:41.851Z,13.60
2023-11-15T18:06:52.601Z,13.40
2023-11-15T18:07:03.608Z,15.50
2023-11-15T18:07:14.399Z,16.40
2023-11-15T18:07:26.701Z,15.50
2023-11-15T18:07:36.188Z,16.20
2023-11-15T18:07:46.968Z,16.50
2023-11-15T18:07:57.704Z,17.40
2023-11-15T18:08:08.246Z,17.80
2023-11-15T18:08:19.104Z,19.10
2023-11-15T18:08:29.715Z,21.40
2023-11-15T18:08:41.884Z,18.20
2023-11-15T18:08:51.142Z,18.30
2023-11-15T18:09:01.791Z,18.70
2023-11-15T18:09:12.365Z,20.00
2023-11-15T18:09:23.145Z,18.50
2023-11-15T18:10:14.432Z,13.10
2023-11-15T18:10:29.121Z,18.10
2023-11-15T18:10:36.196Z,19.80
2023-11-15T18:10:51.877Z,20.70
2023-11-15T18:10:55.913Z,20.10
2023-11-15T18:11:08.321Z,18.90
2023-11-15T18:11:16.980Z,18.70
2023-11-15T18:11:38.089Z,21.80
2023-11-15T18:11:48.674Z,21.40
2023-11-15T18:11:59.464Z,18.60
2023-11-15T18:12:10.747Z,17.30
2023-11-15T18:12:20.896Z,19.70
2023-11-15T18:12:31.524Z,19.80
2023-11-15T18:12:42.557Z,21.30
2023-11-15T18:12:52.817Z,20.70
2023-11-15T18:13:03.583Z,21.70
2023-11-15T18:13:14.304Z,19.70
2023-11-15T18:13:24.897Z,19.20
2023-11-15T18:13:35.551Z,19.00